createdAt,value
2022-12-29T00:00:21.887Z,98385.13
2022-12-29T00:03:09.228Z,98388.75
2022-12-29T00:05:36.208Z,98381.22
2022-12-29T00:08:03.500Z,98383.59
2022-12-29T00:10:30.400Z,98376.50
2022-12-29T00:13:16.252Z,98370.31
2022-12-29T00:15:43.288Z,98372.06
2022-12-29T00:18:10.663Z,98366.72
2022-12-29T00:20:57.573Z,98356.06
2022-12-29T00:23:44.217Z,98359.56
2022-12-29T00:26:37.095Z,98358.72
2022-12-29T00:29:22.972Z,98357.06
2022-12-29T00:32:08.286Z,98366.75
2022-12-29T00:34:54.443Z,98363.28
2022-12-29T00:37:41.522Z,98352.69
2022-12-29T00:40:27.827Z,98350.81
2022-12-29T00:43:13.210Z,98343.94
2022-12-29T00:45:42.752Z,98343.78
2022-12-29T00:48:09.756Z,98348.13
2022-12-29T00:50:36.977Z,98348.38
2022-12-29T00:53:04.083Z,98343.94
2022-12-29T00:55:31.205Z,98352.69
2022-12-29T00:57:58.399Z,98355.13
2022-12-29T01:00:25.705Z,98352.28
2022-12-29T01:02:52.698Z,98342.72
2022-12-29T01:05:20.081Z,98343.63
2022-12-29T01:07:47.033Z,98341.66
2022-12-29T01:10:16.209Z,98338.19
2022-12-29T01:12:43.153Z,98344.41
2022-12-29T01:15:13.888Z,98340.88
2022-12-29T01:17:41.158Z,98333.78
2022-12-29T01:20:09.102Z,98338.88
2022-12-29T01:22:36.260Z,98325.56
2022-12-29T01:25:05.278Z,98331.69
2022-12-29T01:27:32.247Z,98340.53
2022-12-29T01:29:59.863Z,98343.56
2022-12-29T01:32:26.747Z,98337.94
2022-12-29T01:34:53.979Z,98336.06
2022-12-29T01:37:20.897Z,98334.44
2022-12-29T01:39:48.130Z,98330.81
2022-12-29T01:42:19.406Z,98324.81
2022-12-29T01:44:54.063Z,98325.69
2022-12-29T01:47:30.768Z,98313.25
2022-12-29T01:50:26.178Z,98307.84
2022-12-29T01:53:22.378Z,98309.81
2022-12-29T01:55:56.648Z,98303.53
2022-12-29T01:58:31.716Z,98305.53
2022-12-29T02:01:00.639Z,98308.16
2022-12-29T02:03:30.661Z,98299.56
2022-12-29T02:06:09.705Z,98294.38
2022-12-29T02:08:38.766Z,98287.34
2022-12-29T02:11:08.607Z,98286.19
2022-12-29T02:13:35.941Z,98289.13
2022-12-29T02:16:52.250Z,98291.13
2022-12-29T02:19:52.703Z,98285.75
2022-12-29T02:22:47.355Z,98297.22
2022-12-29T02:25:49.373Z,98297.94
2022-12-29T02:28:58.026Z,98303.09
2022-12-29T02:32:00.326Z,98300.78
2022-12-29T02:34:46.016Z,98306.28
2022-12-29T02:37:48.112Z,98308.59
2022-12-29T02:40:15.318Z,98296.94
2022-12-29T02:42:56.177Z,98292.53
2022-12-29T02:46:00.038Z,98278.31
2022-12-29T02:48:53.697Z,98276.63
2022-12-29T02:51:48.573Z,98283.69
2022-12-29T02:54:38.533Z,98277.28
2022-12-29T02:57:18.289Z,98268.69
2022-12-29T02:59:48.627Z,98261.72
2022-12-29T03:02:43.735Z,98261.59
2022-12-29T03:05:47.986Z,98266.97
2022-12-29T03:08:53.521Z,98278.19
2022-12-29T03:11:39.110Z,98268.56
2022-12-29T03:14:40.229Z,98255.28
2022-12-29T03:17:28.428Z,98242.09
2022-12-29T03:20:07.108Z,98269.28
2022-12-29T03:22:42.543Z,98263.44
2022-12-29T03:25:20.681Z,98254.22
2022-12-29T03:27:58.288Z,98245.41
2022-12-29T03:30:29.566Z,98256.63
2022-12-29T03:33:03.591Z,98271.00
2022-12-29T03:35:38.348Z,98268.56
2022-12-29T03:38:17.363Z,98270.88
2022-12-29T03:41:00.957Z,98276.69
2022-12-29T03:43:29.351Z,98288.16
2022-12-29T03:45:56.577Z,98274.00
2022-12-29T03:48:23.571Z,98268.69
2022-12-29T03:50:50.974Z,98261.97
2022-12-29T03:53:17.917Z,98262.44
2022-12-29T03:55:46.205Z,98263.16
2022-12-29T03:58:13.187Z,98262.31
2022-12-29T04:00:40.404Z,98257.19
2022-12-29T04:03:07.360Z,98263.44
2022-12-29T04:05:34.668Z,98254.50
2022-12-29T04:08:01.569Z,98263.16
2022-12-29T04:10:29.001Z,98257.00
2022-12-29T04:12:55.880Z,98257.81
2022-12-29T04:15:25.271Z,98261.03
2022-12-29T04:17:52.236Z,98257.44
2022-12-29T04:20:37.861Z,98253.34
2022-12-29T04:23:07.116Z,98235.50
2022-12-29T04:25:35.616Z,98230.13
2022-12-29T04:28:02.929Z,98230.84
2022-12-29T04:30:30.193Z,98226.53
2022-12-29T04:32:57.119Z,98225.66
2022-12-29T04:35:24.236Z,98221.28
2022-12-29T04:37:51.120Z,98230.44
2022-12-29T04:40:18.310Z,98233.91
2022-12-29T04:42:45.195Z,98240.09
2022-12-29T04:45:12.368Z,98238.94
2022-12-29T04:47:39.292Z,98236.47
2022-12-29T04:50:07.242Z,98229.44
2022-12-29T04:52:34.504Z,98229.06
2022-12-29T04:55:02.350Z,98230.09
2022-12-29T04:57:29.498Z,98229.31
2022-12-29T04:59:56.746Z,98228.47
2022-12-29T05:02:24.274Z,98228.19
2022-12-29T05:04:51.746Z,98231.47
2022-12-29T05:07:20.181Z,98238.22
2022-12-29T05:09:47.485Z,98239.31
2022-12-29T05:12:14.691Z,98237.22
2022-12-29T05:14:42.044Z,98237.09
2022-12-29T05:17:09.010Z,98235.59
2022-12-29T05:19:36.179Z,98232.66
2022-12-29T05:22:03.028Z,98230.91
2022-12-29T05:24:30.195Z,98229.13
2022-12-29T05:26:57.195Z,98234.28
2022-12-29T05:29:24.323Z,98233.31
2022-12-29T05:31:51.234Z,98232.81
2022-12-29T05:34:18.456Z,98238.59
2022-12-29T05:36:45.327Z,98225.56
2022-12-29T05:39:12.571Z,98230.56
2022-12-29T05:41:39.517Z,98232.22
2022-12-29T05:44:06.884Z,98226.91
2022-12-29T05:46:33.770Z,98226.91
2022-12-29T05:49:00.935Z,98216.22
2022-12-29T05:51:27.933Z,98222.69
2022-12-29T05:53:55.085Z,98218.28
2022-12-29T05:56:22.116Z,98203.50
2022-12-29T05:58:49.195Z,98208.56
2022-12-29T06:01:16.544Z,98205.88
2022-12-29T06:03:48.126Z,98206.66
2022-12-29T06:06:15.928Z,98210.84
2022-12-29T06:08:43.113Z,98202.09
2022-12-29T06:11:10.176Z,98204.66
2022-12-29T06:13:37.707Z,98209.72
2022-12-29T06:16:05.146Z,98205.44
2022-12-29T06:18:32.449Z,98209.94
2022-12-29T06:21:05.558Z,98212.44
2022-12-29T06:23:32.995Z,98219.50
2022-12-29T06:25:59.967Z,98213.28
2022-12-29T06:28:27.248Z,98217.75
2022-12-29T06:30:54.290Z,98210.50
2022-12-29T06:33:22.042Z,98215.72
2022-12-29T06:35:49.150Z,98212.91
2022-12-29T06:38:16.372Z,98217.19
2022-12-29T06:40:46.074Z,98224.25
2022-12-29T06:43:13.589Z,98219.13
2022-12-29T06:45:41.624Z,98221.81
2022-12-29T06:48:09.443Z,98224.56
2022-12-29T06:50:36.752Z,98228.91
2022-12-29T06:53:04.171Z,98231.56
2022-12-29T06:55:31.142Z,98226.28
2022-12-29T06:57:59.395Z,98226.22
2022-12-29T07:00:26.997Z,98231.44
2022-12-29T07:02:57.274Z,98233.97
2022-12-29T07:05:25.926Z,98219.97
2022-12-29T07:07:53.435Z,98217.34
2022-12-29T07:10:20.358Z,98231.31
2022-12-29T07:12:47.562Z,98231.91
2022-12-29T07:15:14.512Z,98239.59
2022-12-29T07:17:41.760Z,98238.81
2022-12-29T07:20:09.994Z,98242.16
2022-12-29T07:22:37.539Z,98244.81
2022-12-29T07:25:05.088Z,98251.47
2022-12-29T07:27:32.293Z,98251.06
2022-12-29T07:29:59.236Z,98252.59
2022-12-29T07:32:26.717Z,98241.19
2022-12-29T07:34:53.619Z,98231.16
2022-12-29T07:37:21.055Z,98233.00
2022-12-29T07:39:48.268Z,98236.53
2022-12-29T07:42:15.543Z,98231.03
2022-12-29T07:44:42.434Z,98226.56
2022-12-29T07:47:09.618Z,98230.69
2022-12-29T07:49:36.533Z,98234.06
2022-12-29T07:52:03.810Z,98230.28
2022-12-29T07:54:30.767Z,98230.41
2022-12-29T07:57:01.073Z,98222.47
2022-12-29T07:59:28.045Z,98229.38
2022-12-29T08:01:55.451Z,98235.53
2022-12-29T08:04:22.863Z,98237.03
2022-12-29T08:06:50.508Z,98234.22
2022-12-29T08:09:22.416Z,98239.41
2022-12-29T08:11:50.207Z,98247.31
2022-12-29T08:14:17.349Z,98238.56
2022-12-29T08:16:44.613Z,98248.00
2022-12-29T08:19:13.091Z,98241.69
2022-12-29T08:21:40.388Z,98237.22
2022-12-29T08:24:09.647Z,98225.88
2022-12-29T08:26:36.907Z,98229.31
2022-12-29T08:29:03.857Z,98220.72
2022-12-29T08:31:31.148Z,98223.56
2022-12-29T08:33:58.090Z,98231.31
2022-12-29T08:36:25.298Z,98233.78
2022-12-29T08:38:52.416Z,98243.34
2022-12-29T08:41:19.659Z,98245.00
2022-12-29T08:43:49.816Z,98249.25
2022-12-29T08:46:18.127Z,98254.38
2022-12-29T08:48:45.238Z,98251.53
2022-12-29T08:51:12.793Z,98252.19
2022-12-29T08:53:39.759Z,98240.63
2022-12-29T08:56:10.057Z,98244.75
2022-12-29T08:58:37.124Z,98243.63
2022-12-29T09:01:05.876Z,98243.44
2022-12-29T09:06:20.239Z,98248.31
2022-12-29T09:08:47.228Z,98247.16
2022-12-29T09:11:23.121Z,98236.50
2022-12-29T09:13:50.819Z,98231.78
2022-12-29T09:16:19.740Z,98234.16
2022-12-29T09:18:46.811Z,98234.78
2022-12-29T09:21:14.326Z,98237.13
2022-12-29T09:23:41.769Z,98243.03
2022-12-29T09:26:10.053Z,98236.59
2022-12-29T09:28:37.775Z,98246.88
2022-12-29T09:31:05.608Z,98243.91
2022-12-29T09:33:35.127Z,98247.09
2022-12-29T09:36:03.782Z,98246.81
2022-12-29T09:38:31.753Z,98245.50
2022-12-29T09:41:30.901Z,98247.09
2022-12-29T09:44:24.222Z,98235.41
2022-12-29T09:46:55.367Z,98227.28
2022-12-29T09:49:47.156Z,98226.88
2022-12-29T09:52:22.963Z,98228.53
2022-12-29T09:55:05.292Z,98227.50
2022-12-29T09:57:49.242Z,98222.75
2022-12-29T10:00:24.935Z,98223.22
2022-12-29T10:03:03.791Z,98225.63
2022-12-29T10:05:49.291Z,98223.66
2022-12-29T10:08:36.346Z,98209.28
2022-12-29T10:11:49.374Z,98204.00
2022-12-29T10:14:58.121Z,98212.63
2022-12-29T10:18:01.938Z,98207.09
2022-12-29T10:20:34.793Z,98209.59
2022-12-29T10:23:23.777Z,98206.00
2022-12-29T10:25:56.054Z,98210.25
2022-12-29T10:28:41.542Z,98205.84
2022-12-29T10:31:22.076Z,98200.31
2022-12-29T10:33:57.470Z,98196.56
2022-12-29T10:36:44.249Z,98189.44
2022-12-29T10:39:42.242Z,98180.16
2022-12-29T10:42:26.801Z,98181.84
2022-12-29T10:44:56.229Z,98179.63
2022-12-29T10:47:33.868Z,98183.75
2022-12-29T10:50:03.111Z,98170.00
2022-12-29T10:52:34.538Z,98174.19
2022-12-29T10:55:23.296Z,98169.69
2022-12-29T10:57:50.690Z,98166.66
2022-12-29T11:00:23.350Z,98155.88
2022-12-29T11:03:26.853Z,98146.66
2022-12-29T11:06:03.750Z,98147.88
2022-12-29T11:08:46.457Z,98133.09
2022-12-29T11:11:28.110Z,98137.38
2022-12-29T11:14:12.477Z,98142.97
2022-12-29T11:16:39.829Z,98131.53
2022-12-29T11:19:07.071Z,98129.41
2022-12-29T11:21:41.449Z,98129.47
2022-12-29T11:24:27.286Z,98124.69
2022-12-29T11:27:09.876Z,98125.13
2022-12-29T11:29:43.140Z,98122.22
2022-12-29T11:32:29.118Z,98113.19
2022-12-29T11:35:00.358Z,98107.69
2022-12-29T11:37:43.465Z,98114.78
2022-12-29T11:40:22.452Z,98125.09
2022-12-29T11:42:57.994Z,98134.41
2022-12-29T11:45:34.415Z,98134.00
2022-12-29T11:48:19.581Z,98130.69
2022-12-29T11:51:01.991Z,98130.03
2022-12-29T11:53:44.949Z,98127.56
2022-12-29T11:56:17.994Z,98131.19
2022-12-29T11:58:45.812Z,98128.22
2022-12-29T12:01:40.076Z,98125.16
2022-12-29T12:04:18.320Z,98121.34
2022-12-29T12:06:53.915Z,98127.53
2022-12-29T12:09:32.423Z,98130.66
2022-12-29T12:12:02.652Z,98135.53
2022-12-29T12:15:00.562Z,98131.97
2022-12-29T12:17:41.069Z,98132.63
2022-12-29T12:20:23.038Z,98133.75
2022-12-29T12:23:14.766Z,98129.72
2022-12-29T12:25:55.553Z,98134.44
2022-12-29T12:29:27.843Z,98131.47
2022-12-29T12:32:03.574Z,98119.97
2022-12-29T12:34:43.065Z,98121.56
2022-12-29T12:37:38.851Z,98122.50
2022-12-29T12:40:43.177Z,98121.47
2022-12-29T12:43:34.205Z,98127.22
2022-12-29T12:46:59.766Z,98120.06
2022-12-29T12:49:38.616Z,98112.78
2022-12-29T12:52:40.963Z,98102.28
2022-12-29T12:55:55.466Z,98101.78
2022-12-29T12:59:04.232Z,98111.53
2022-12-29T13:02:24.819Z,98111.53
2022-12-29T13:05:27.433Z,98100.66
2022-12-29T13:08:31.405Z,98093.28
2022-12-29T13:11:01.507Z,98088.09
2022-12-29T13:13:34.561Z,98089.47
2022-12-29T13:16:32.830Z,98092.13
2022-12-29T13:19:40.386Z,98084.88
2022-12-29T13:22:21.764Z,98091.38
2022-12-29T13:25:19.636Z,98095.53
2022-12-29T13:28:01.951Z,98099.63
2022-12-29T13:30:50.455Z,98102.28
2022-12-29T13:33:54.192Z,98098.47
2022-12-29T13:36:35.044Z,98103.69
2022-12-29T13:39:22.998Z,98111.53
2022-12-29T13:41:54.054Z,98113.25
2022-12-29T13:44:37.100Z,98113.88
2022-12-29T13:47:28.298Z,98115.66
2022-12-29T13:50:01.709Z,98113.38
2022-12-29T13:52:44.716Z,98120.38
2022-12-29T13:55:55.982Z,98119.47
2022-12-29T13:58:31.753Z,98118.38
2022-12-29T14:01:19.346Z,98121.13
2022-12-29T14:03:50.644Z,98121.78
2022-12-29T14:06:23.899Z,98117.53
2022-12-29T14:08:55.988Z,98120.84
2022-12-29T14:11:35.006Z,98125.94
2022-12-29T14:14:18.362Z,98130.47
2022-12-29T14:16:46.835Z,98130.59
2022-12-29T14:19:44.783Z,98135.03
2022-12-29T14:22:13.711Z,98142.41
2022-12-29T14:24:46.549Z,98131.72
2022-12-29T14:27:13.845Z,98131.91
2022-12-29T14:29:40.673Z,98136.00
2022-12-29T14:32:26.039Z,98134.09
2022-12-29T14:34:57.771Z,98136.19
2022-12-29T14:37:26.927Z,98142.94
2022-12-29T14:40:20.231Z,98141.41
2022-12-29T14:42:53.957Z,98142.38
2022-12-29T14:45:29.808Z,98141.50
2022-12-29T14:47:58.510Z,98149.84
2022-12-29T14:50:43.553Z,98144.56
2022-12-29T14:53:47.959Z,98153.63
2022-12-29T14:56:19.749Z,98157.31
2022-12-29T14:59:03.023Z,98157.56
2022-12-29T15:01:44.293Z,98159.66
2022-12-29T15:04:33.945Z,98164.31
2022-12-29T15:07:04.410Z,98161.19
2022-12-29T15:09:53.359Z,98167.59
2022-12-29T15:12:43.043Z,98164.84
2022-12-29T15:15:30.921Z,98156.06
2022-12-29T15:17:58.117Z,98162.03
2022-12-29T15:20:32.625Z,98160.31
2022-12-29T15:23:10.655Z,98157.84
2022-12-29T15:26:06.767Z,98157.75
2022-12-29T15:28:47.658Z,98149.06
2022-12-29T15:31:30.040Z,98161.38
2022-12-29T15:34:13.322Z,98150.22
2022-12-29T15:36:42.470Z,98162.41
2022-12-29T15:39:32.092Z,98148.19
2022-12-29T15:42:24.169Z,98159.75
2022-12-29T15:44:57.983Z,98163.16
2022-12-29T15:47:36.537Z,98162.47
2022-12-29T15:50:09.889Z,98169.84
2022-12-29T15:52:41.366Z,98171.44
2022-12-29T15:55:33.908Z,98183.06
2022-12-29T15:58:07.130Z,98167.66
2022-12-29T16:00:39.777Z,98185.13
2022-12-29T16:03:14.870Z,98187.78
2022-12-29T16:05:41.902Z,98180.03
2022-12-29T16:08:38.236Z,98180.38
2022-12-29T16:11:39.573Z,98190.97
2022-12-29T16:14:45.474Z,98188.22
2022-12-29T16:17:27.925Z,98184.66
2022-12-29T16:20:15.066Z,98181.50
2022-12-29T16:22:49.482Z,98179.81
2022-12-29T16:25:38.460Z,98182.88
2022-12-29T16:28:21.640Z,98183.09
2022-12-29T16:31:02.972Z,98180.34
2022-12-29T16:33:55.050Z,98191.69
2022-12-29T16:36:40.788Z,98184.41
2022-12-29T16:39:23.136Z,98185.72
2022-12-29T16:41:51.824Z,98181.38
2022-12-29T16:44:29.247Z,98172.84
2022-12-29T16:47:03.645Z,98177.22
2022-12-29T16:49:36.707Z,98168.78
2022-12-29T16:52:24.834Z,98173.13
2022-12-29T16:54:57.588Z,98168.59
2022-12-29T16:57:30.790Z,98176.13
2022-12-29T17:00:04.355Z,98173.41
2022-12-29T17:02:35.559Z,98177.81
2022-12-29T17:05:02.740Z,98171.22
2022-12-29T17:07:30.077Z,98180.88
2022-12-29T17:09:57.141Z,98174.66
2022-12-29T17:12:30.784Z,98176.63
2022-12-29T17:15:09.346Z,98175.09
2022-12-29T17:17:45.941Z,98178.00
2022-12-29T17:20:20.953Z,98175.75
2022-12-29T17:22:49.632Z,98172.34
2022-12-29T17:25:27.421Z,98173.50
2022-12-29T17:28:01.111Z,98171.44
2022-12-29T17:30:34.121Z,98174.84
2022-12-29T17:33:09.135Z,98173.56
2022-12-29T17:35:36.399Z,98173.56
2022-12-29T17:38:18.751Z,98171.88
2022-12-29T17:40:46.456Z,98179.78
2022-12-29T17:43:15.856Z,98182.59
2022-12-29T17:45:47.389Z,98184.50
2022-12-29T17:48:18.590Z,98180.13
2022-12-29T17:50:48.538Z,98188.94
2022-12-29T17:53:24.424Z,98189.09
2022-12-29T17:55:52.226Z,98198.03
2022-12-29T17:58:22.248Z,98198.16
2022-12-29T18:00:52.872Z,98204.47
2022-12-29T18:03:27.724Z,98210.66
2022-12-29T18:05:55.368Z,98208.41
2022-12-29T18:08:22.610Z,98206.00
2022-12-29T18:10:54.013Z,98207.94
2022-12-29T18:13:31.844Z,98217.59
2022-12-29T18:16:03.289Z,98208.94
2022-12-29T18:18:30.226Z,98206.31
2022-12-29T18:21:00.623Z,98209.03
2022-12-29T18:23:35.041Z,98203.06
2022-12-29T18:26:31.683Z,98216.34
2022-12-29T18:28:59.338Z,98216.28
2022-12-29T18:31:31.663Z,98216.28
2022-12-29T18:34:02.154Z,98211.06
2022-12-29T18:36:29.681Z,98219.97
2022-12-29T18:38:56.808Z,98215.75
2022-12-29T18:41:30.727Z,98219.28
2022-12-29T18:43:59.859Z,98219.44
2022-12-29T18:46:27.634Z,98222.31
2022-12-29T18:48:54.919Z,98228.72
2022-12-29T18:51:26.013Z,98234.78
2022-12-29T18:53:54.433Z,98232.13
2022-12-29T18:56:23.686Z,98232.97
2022-12-29T18:58:51.597Z,98235.59
2022-12-29T19:01:28.123Z,98242.78
2022-12-29T19:03:55.588Z,98229.47
2022-12-29T19:06:22.792Z,98229.47
2022-12-29T19:08:50.143Z,98244.72
2022-12-29T19:11:17.894Z,98244.88
2022-12-29T19:13:45.241Z,98245.13
2022-12-29T19:16:19.825Z,98247.00
2022-12-29T19:18:58.182Z,98247.63
2022-12-29T19:21:31.445Z,98245.06
2022-12-29T19:23:58.643Z,98240.44
2022-12-29T19:26:34.470Z,98241.41
2022-12-29T19:29:04.270Z,98246.59
2022-12-29T19:31:31.367Z,98237.81
2022-12-29T19:33:58.841Z,98238.69
2022-12-29T19:36:25.933Z,98235.09
2022-12-29T19:38:54.408Z,98243.00
2022-12-29T19:41:21.357Z,98239.69
2022-12-29T19:43:48.713Z,98238.75
2022-12-29T19:46:18.788Z,98235.25
2022-12-29T19:48:46.214Z,98241.50
2022-12-29T19:51:17.264Z,98244.97
2022-12-29T19:53:47.882Z,98247.63
2022-12-29T19:56:17.701Z,98246.69
2022-12-29T19:58:47.487Z,98246.09
2022-12-29T20:01:19.419Z,98248.88
2022-12-29T20:03:47.204Z,98240.88
2022-12-29T20:06:14.871Z,98237.41
2022-12-29T20:08:42.601Z,98237.28
2022-12-29T20:11:14.604Z,98235.44
2022-12-29T20:13:43.808Z,98241.56
2022-12-29T20:16:15.899Z,98236.59
2022-12-29T20:18:43.880Z,98244.78
2022-12-29T20:21:21.680Z,98235.31
2022-12-29T20:23:50.684Z,98243.06
2022-12-29T20:26:26.301Z,98249.03
2022-12-29T20:28:57.847Z,98249.19
2022-12-29T20:31:33.309Z,98251.59
2022-12-29T20:34:01.048Z,98252.44
2022-12-29T20:36:33.290Z,98255.88
2022-12-29T20:39:05.987Z,98256.66
2022-12-29T20:41:33.203Z,98262.16
2022-12-29T20:44:00.886Z,98267.53
2022-12-29T20:46:34.079Z,98278.16
2022-12-29T20:49:08.043Z,98277.16
2022-12-29T20:52:03.987Z,98270.31
2022-12-29T20:54:22.652Z,98261.94
2022-12-29T20:56:50.314Z,98250.69
2022-12-29T20:59:33.002Z,98249.25
2022-12-29T21:02:00.018Z,98251.03
2022-12-29T21:04:38.472Z,98241.50
2022-12-29T21:07:19.778Z,98236.28
2022-12-29T21:09:47.513Z,98245.31
2022-12-29T21:12:15.028Z,98242.84
2022-12-29T21:14:45.779Z,98235.16
2022-12-29T21:17:13.071Z,98225.47
2022-12-29T21:19:40.577Z,98227.91
2022-12-29T21:22:07.478Z,98225.28
2022-12-29T21:24:34.759Z,98219.84
2022-12-29T21:27:01.665Z,98213.81
2022-12-29T21:29:28.866Z,98215.69
2022-12-29T21:31:57.730Z,98219.31
2022-12-29T21:34:27.013Z,98215.84
2022-12-29T21:36:53.900Z,98213.19
2022-12-29T21:39:21.181Z,98220.34
2022-12-29T21:41:48.263Z,98224.22
2022-12-29T21:44:33.916Z,98220.66
2022-12-29T21:47:00.990Z,98218.63
2022-12-29T21:49:28.754Z,98221.50
2022-12-29T21:51:57.458Z,98229.47
2022-12-29T21:54:48.810Z,98228.56
2022-12-29T21:57:37.366Z,98237.66
2022-12-29T22:00:29.128Z,98244.00
2022-12-29T22:03:22.579Z,98231.69
2022-12-29T22:06:10.352Z,98225.88
2022-12-29T22:08:57.902Z,98237.44
2022-12-29T22:11:43.684Z,98236.72
2022-12-29T22:14:10.885Z,98243.09
2022-12-29T22:16:38.413Z,98242.50
2022-12-29T22:19:05.534Z,98240.53
2022-12-29T22:21:32.729Z,98246.75
2022-12-29T22:24:00.736Z,98235.09
2022-12-29T22:26:28.059Z,98242.84
2022-12-29T22:28:55.123Z,98248.94
2022-12-29T22:31:28.062Z,98244.41
2022-12-29T22:34:01.771Z,98232.84
2022-12-29T22:36:29.833Z,98230.22
2022-12-29T22:38:57.229Z,98232.22
2022-12-29T22:41:24.524Z,98232.16
2022-12-29T22:43:51.804Z,98240.22
2022-12-29T22:46:19.852Z,98249.00
2022-12-29T22:48:46.988Z,98254.09
2022-12-29T22:51:14.388Z,98258.75
2022-12-29T22:53:41.457Z,98262.72
2022-12-29T22:56:12.609Z,98262.25
2022-12-29T22:58:41.805Z,98260.84
2022-12-29T23:01:11.077Z,98262.78
2022-12-29T23:03:38.745Z,98270.41
2022-12-29T23:06:08.876Z,98265.97
2022-12-29T23:08:39.084Z,98258.81
2022-12-29T23:11:10.837Z,98267.38
2022-12-29T23:13:39.019Z,98264.91
2022-12-29T23:16:06.355Z,98264.09
2022-12-29T23:18:33.562Z,98267.47
2022-12-29T23:21:00.770Z,98266.66
2022-12-29T23:23:49.263Z,98260.41
2022-12-29T23:26:19.271Z,98259.38
2022-12-29T23:28:46.614Z,98257.59
2022-12-29T23:31:14.996Z,98253.03
2022-12-29T23:33:42.095Z,98258.16
2022-12-29T23:36:09.750Z,98266.41
2022-12-29T23:38:36.756Z,98267.84
2022-12-29T23:41:04.564Z,98278.41
2022-12-29T23:43:31.800Z,98280.63
2022-12-29T23:45:59.339Z,98283.53
2022-12-29T23:48:26.264Z,98284.03
2022-12-29T23:50:55.277Z,98285.66
2022-12-29T23:53:22.172Z,98289.41
2022-12-29T23:55:55.866Z,98277.84
2022-12-29T23:58:23.045Z,98277.84
